createdAt,value
2023-04-20T00:00:16.284Z,8.70
2023-04-20T00:02:29.874Z,8.54
2023-04-20T00:04:50.428Z,8.70
2023-04-20T00:06:59.897Z,8.49
2023-04-20T00:09:14.548Z,8.33
2023-04-20T00:11:27.630Z,8.54
2023-04-20T00:13:41.236Z,8.54
2023-04-20T00:15:57.156Z,8.49
2023-04-20T00:18:15.749Z,8.54
2023-04-20T00:20:34.173Z,8.27
2023-04-20T00:22:51.341Z,8.70
2023-04-20T00:25:06.937Z,8.43
2023-04-20T00:27:25.060Z,8.27
2023-04-20T00:29:43.116Z,8.27
2023-04-20T00:31:58.752Z,8.27
2023-04-20T00:34:17.661Z,8.27
2023-04-20T00:36:34.860Z,8.27
2023-04-20T00:38:53.156Z,8.38
2023-04-20T00:41:12.477Z,8.22
2023-04-20T00:43:24.022Z,8.27
2023-04-20T00:45:36.207Z,8.54
2023-04-20T00:47:51.880Z,8.54
2023-04-20T00:50:04.442Z,8.27
2023-04-20T00:52:18.384Z,8.33
2023-04-20T00:54:31.946Z,8.33
2023-04-20T00:56:43.283Z,8.54
2023-04-20T00:58:58.710Z,8.27
2023-04-20T01:01:12.399Z,8.27
2023-04-20T01:03:24.568Z,8.54
2023-04-20T01:05:37.990Z,8.54
2023-04-20T01:07:50.069Z,8.33
2023-04-20T01:10:04.534Z,8.59
2023-04-20T01:12:18.191Z,8.54
2023-04-20T01:14:32.811Z,8.27
2023-04-20T01:16:46.233Z,8.54
2023-04-20T01:18:59.815Z,8.54
2023-04-20T01:21:13.418Z,8.27
2023-04-20T01:23:27.442Z,8.27
2023-04-20T01:25:39.077Z,8.38
2023-04-20T01:27:53.136Z,8.54
2023-04-20T01:30:05.785Z,8.27
2023-04-20T01:32:18.827Z,8.27
2023-04-20T01:34:35.459Z,8.27
2023-04-20T01:36:53.032Z,8.59
2023-04-20T01:39:06.207Z,8.54
2023-04-20T01:41:19.691Z,8.54
2023-04-20T01:43:33.285Z,8.33
2023-04-20T01:45:46.906Z,8.22
2023-04-20T01:48:01.882Z,8.54
2023-04-20T01:50:16.042Z,8.59
2023-04-20T01:52:34.133Z,8.27
2023-04-20T01:54:49.718Z,8.59
2023-04-20T01:57:05.325Z,8.43
2023-04-20T01:59:19.092Z,8.27
2023-04-20T02:01:32.465Z,8.27
2023-04-20T02:03:50.955Z,8.33
2023-04-20T02:06:07.053Z,8.27
2023-04-20T02:08:18.695Z,8.33
2023-04-20T02:10:31.836Z,8.33
2023-04-20T02:12:47.415Z,8.54
2023-04-20T02:15:01.003Z,8.38
2023-04-20T02:17:13.197Z,8.27
2023-04-20T02:19:25.211Z,8.43
2023-04-20T02:21:37.275Z,8.54
2023-04-20T02:23:50.384Z,8.27
2023-04-20T02:26:03.345Z,8.49
2023-04-20T02:28:13.540Z,8.54
2023-04-20T02:30:25.653Z,8.33
2023-04-20T02:32:37.759Z,8.22
2023-04-20T02:34:49.819Z,8.33
2023-04-20T02:37:01.902Z,8.38
2023-04-20T02:39:13.993Z,8.27
2023-04-20T02:41:27.056Z,8.11
2023-04-20T02:43:40.535Z,8.27
2023-04-20T02:45:51.788Z,8.38
2023-04-20T02:48:03.902Z,8.49
2023-04-20T02:50:17.468Z,8.11
2023-04-20T02:52:31.051Z,8.54
2023-04-20T02:54:46.586Z,8.33
2023-04-20T02:56:58.216Z,8.33
2023-04-20T02:59:11.810Z,8.33
2023-04-20T03:01:25.416Z,8.11
2023-04-20T03:03:39.556Z,8.33
2023-04-20T03:05:56.631Z,8.00
2023-04-20T03:08:07.101Z,8.38
2023-04-20T03:10:21.079Z,8.54
2023-04-20T03:12:32.252Z,8.11
2023-04-20T03:14:44.371Z,8.06
2023-04-20T03:16:58.222Z,8.22
2023-04-20T03:19:10.313Z,8.27
2023-04-20T03:21:23.248Z,8.11
2023-04-20T03:23:37.013Z,8.06
2023-04-20T03:25:50.794Z,8.33
2023-04-20T03:28:04.334Z,8.27
2023-04-20T03:30:14.961Z,8.16
2023-04-20T03:32:27.635Z,8.11
2023-04-20T03:34:43.205Z,8.27
2023-04-20T03:36:55.372Z,8.11
2023-04-20T03:39:08.888Z,8.33
2023-04-20T03:41:21.283Z,8.38
2023-04-20T03:43:35.715Z,8.33
2023-04-20T03:45:48.448Z,8.11
2023-04-20T03:48:04.098Z,8.33
2023-04-20T03:50:18.817Z,8.22
2023-04-20T03:52:32.396Z,8.11
2023-04-20T03:54:43.597Z,8.16
2023-04-20T03:56:57.757Z,8.11
2023-04-20T03:59:12.304Z,8.27
2023-04-20T04:01:26.755Z,8.11
2023-04-20T04:03:41.454Z,8.06
2023-04-20T04:05:52.910Z,8.33
2023-04-20T04:08:06.924Z,8.11
2023-04-20T04:10:18.091Z,8.43
2023-04-20T04:12:30.172Z,8.38
2023-04-20T04:14:43.769Z,8.33
2023-04-20T04:16:56.793Z,8.16
2023-04-20T04:19:08.313Z,8.06
2023-04-20T04:21:19.527Z,8.33
2023-04-20T04:23:31.597Z,8.33
2023-04-20T04:25:45.171Z,8.38
2023-04-20T04:27:57.238Z,8.06
2023-04-20T04:30:09.341Z,8.43
2023-04-20T04:32:25.231Z,8.27
2023-04-20T04:34:35.305Z,8.38
2023-04-20T04:36:47.374Z,8.11
2023-04-20T04:39:00.329Z,8.33
2023-04-20T04:41:11.845Z,8.11
2023-04-20T04:43:23.939Z,8.11
2023-04-20T04:45:36.014Z,8.22
2023-04-20T04:47:49.689Z,8.38
2023-04-20T04:50:00.204Z,8.11
2023-04-20T04:52:12.278Z,8.38
2023-04-20T04:54:25.764Z,8.11
2023-04-20T04:56:41.323Z,8.27
2023-04-20T04:58:50.456Z,8.38
2023-04-20T05:01:02.487Z,8.11
2023-04-20T05:03:13.861Z,8.38
2023-04-20T05:04:13.745Z,8.38
2023-04-20T05:06:27.285Z,8.16
2023-04-20T05:08:39.888Z,8.06
2023-04-20T05:10:53.965Z,8.33
2023-04-20T05:13:04.581Z,8.33
2023-04-20T05:15:16.243Z,8.22
2023-04-20T05:17:28.810Z,8.38
2023-04-20T05:19:40.325Z,8.06
2023-04-20T05:21:52.446Z,8.16
2023-04-20T05:24:04.502Z,8.00
2023-04-20T05:26:17.565Z,8.16
2023-04-20T05:28:30.653Z,8.33
2023-04-20T05:30:42.805Z,8.33
2023-04-20T05:32:55.931Z,8.33
2023-04-20T05:35:07.957Z,8.11
2023-04-20T05:37:20.030Z,8.27
2023-04-20T05:39:33.004Z,8.27
2023-04-20T05:41:44.215Z,8.11
2023-04-20T05:43:57.843Z,8.06
2023-04-20T05:46:10.925Z,8.33
2023-04-20T05:48:23.455Z,8.38
2023-04-20T05:50:35.038Z,8.33
2023-04-20T05:52:48.567Z,8.27
2023-04-20T05:55:00.256Z,8.16
2023-04-20T05:57:11.292Z,8.11
2023-04-20T05:59:24.251Z,8.00
2023-04-20T06:01:38.351Z,8.27
2023-04-20T06:03:50.657Z,8.38
2023-04-20T06:06:01.615Z,8.11
2023-04-20T06:08:14.672Z,8.33
2023-04-20T06:10:26.757Z,8.11
2023-04-20T06:12:38.842Z,7.95
2023-04-20T06:14:50.914Z,8.38
2023-04-20T06:17:04.424Z,7.90
2023-04-20T06:19:15.250Z,8.33
2023-04-20T06:21:27.162Z,8.11
2023-04-20T06:23:40.146Z,8.16
2023-04-20T06:25:52.220Z,8.06
2023-04-20T06:28:06.935Z,8.06
2023-04-20T06:30:22.488Z,7.90
2023-04-20T06:32:38.233Z,7.90
2023-04-20T06:34:52.552Z,8.11
2023-04-20T06:37:07.247Z,7.90
2023-04-20T06:39:22.851Z,8.11
2023-04-20T06:41:38.424Z,7.95
2023-04-20T06:43:52.074Z,8.38
2023-04-20T06:46:08.549Z,8.06
2023-04-20T06:48:31.339Z,8.16
2023-04-20T06:50:36.820Z,8.43
2023-04-20T06:52:49.778Z,8.22
2023-04-20T06:55:04.521Z,8.27
2023-04-20T06:57:20.189Z,8.33
2023-04-20T06:59:35.740Z,8.33
2023-04-20T07:01:51.320Z,8.11
2023-04-20T07:04:08.034Z,8.27
2023-04-20T07:06:22.557Z,8.06
2023-04-20T07:08:37.072Z,8.11
2023-04-20T07:10:50.647Z,8.33
2023-04-20T07:13:04.307Z,8.38
2023-04-20T07:15:19.915Z,8.38
2023-04-20T07:17:35.531Z,8.38
2023-04-20T07:19:51.075Z,8.06
2023-04-20T07:22:04.664Z,8.38
2023-04-20T07:24:20.299Z,8.27
2023-04-20T07:26:38.502Z,8.06
2023-04-20T07:28:56.789Z,8.22
2023-04-20T07:31:14.554Z,8.06
2023-04-20T07:33:33.745Z,8.33
2023-04-20T07:35:49.234Z,8.38
2023-04-20T07:38:04.000Z,8.33
2023-04-20T07:40:22.174Z,8.16
2023-04-20T07:42:40.379Z,8.22
2023-04-20T07:44:59.017Z,8.33
2023-04-20T07:47:16.382Z,7.90
2023-04-20T07:49:34.616Z,8.33
2023-04-20T07:51:52.583Z,7.84
2023-04-20T07:54:08.351Z,8.11
2023-04-20T07:56:28.626Z,8.16
2023-04-20T07:58:46.956Z,7.90
2023-04-20T08:01:02.307Z,7.90
2023-04-20T08:03:18.405Z,8.06
2023-04-20T09:57:45.982Z,8.06
2023-04-20T10:01:31.250Z,7.84
2023-04-20T10:03:43.014Z,7.90
2023-04-20T10:06:00.845Z,8.16
2023-04-20T10:08:19.848Z,8.16
2023-04-20T10:10:39.584Z,8.00
2023-04-20T10:12:58.607Z,8.16
2023-04-20T10:15:16.652Z,7.90
2023-04-20T10:17:31.316Z,8.16
2023-04-20T10:19:46.992Z,8.16
2023-04-20T10:22:02.461Z,8.06
2023-04-20T10:24:20.280Z,8.16
2023-04-20T10:26:36.137Z,7.90
2023-04-20T10:28:54.236Z,8.16
2023-04-20T10:31:08.797Z,8.11
2023-04-20T10:33:24.318Z,8.22
2023-04-20T10:35:42.833Z,7.84
2023-04-20T10:38:00.549Z,8.16
2023-04-20T10:40:20.433Z,8.16
2023-04-20T10:42:38.740Z,8.16
2023-04-20T10:44:59.408Z,8.16
2023-04-20T10:47:18.001Z,7.90
2023-04-20T10:49:36.487Z,8.16
2023-04-20T10:51:55.146Z,8.06
2023-04-20T10:54:14.251Z,8.00
2023-04-20T10:56:33.901Z,7.95
2023-04-20T10:58:54.590Z,8.11
2023-04-20T11:01:12.468Z,8.16
2023-04-20T11:03:33.196Z,8.22
2023-04-20T11:05:51.490Z,7.95
2023-04-20T11:08:08.025Z,7.95
2023-04-20T11:10:28.462Z,7.95
2023-04-20T11:12:45.092Z,7.84
2023-04-20T11:15:03.235Z,8.06
2023-04-20T11:17:23.888Z,8.11
2023-04-20T11:19:42.207Z,7.90
2023-04-20T11:22:02.546Z,7.95
2023-04-20T11:24:23.111Z,8.16
2023-04-20T11:26:43.722Z,7.95
2023-04-20T11:28:58.277Z,7.90
2023-04-20T11:31:19.066Z,8.16
2023-04-20T11:33:37.155Z,8.16
2023-04-20T11:35:55.428Z,7.90
2023-04-20T11:38:13.110Z,8.22
2023-04-20T11:40:42.281Z,7.90
2023-04-20T11:43:02.813Z,8.22
2023-04-20T11:45:23.502Z,8.00
2023-04-20T11:47:42.565Z,8.00
2023-04-20T11:50:00.572Z,8.16
2023-04-20T11:52:21.223Z,8.11
2023-04-20T13:02:26.052Z,7.95
2023-04-20T13:16:26.221Z,8.16
2023-04-20T13:18:23.216Z,7.90
2023-04-20T13:20:41.746Z,7.95
2023-04-20T13:22:57.982Z,8.16
2023-04-20T13:25:14.444Z,7.95
2023-04-20T13:27:32.499Z,8.00
2023-04-20T13:29:49.095Z,8.00
2023-04-20T13:32:07.504Z,7.79
2023-04-20T13:34:25.174Z,8.11
2023-04-20T13:36:45.908Z,7.95
2023-04-20T13:39:03.893Z,7.90
2023-04-20T13:41:24.612Z,8.59
2023-04-20T13:43:42.926Z,8.11
2023-04-20T13:46:03.168Z,8.06
2023-04-20T13:48:21.307Z,7.95
2023-04-20T13:50:39.313Z,7.95
2023-04-20T13:52:58.435Z,8.16
2023-04-20T13:55:16.555Z,8.11
2023-04-20T13:57:34.667Z,7.73
2023-04-20T13:59:55.281Z,8.11
2023-04-20T14:02:11.906Z,8.00
2023-04-20T14:04:30.193Z,7.84
2023-04-20T14:06:48.035Z,7.79
2023-04-20T14:09:06.113Z,8.11
2023-04-20T14:11:26.665Z,7.73
2023-04-20T14:13:44.942Z,7.90
2023-04-20T14:16:02.894Z,7.79
2023-04-20T14:18:21.003Z,7.79
2023-04-20T14:20:35.613Z,7.73
2023-04-20T14:22:50.098Z,7.73
2023-04-20T14:25:11.184Z,7.95
2023-04-20T14:27:32.276Z,7.79
2023-04-20T14:29:52.587Z,7.95
2023-04-20T14:32:13.167Z,8.06
2023-04-20T14:34:27.416Z,7.95
2023-04-20T14:36:45.684Z,7.90
2023-04-20T14:39:00.158Z,7.95
2023-04-20T14:41:14.786Z,7.73
2023-04-20T14:43:30.435Z,8.00
2023-04-20T14:45:48.505Z,7.95
2023-04-20T14:48:08.981Z,7.84
2023-04-20T14:50:23.609Z,7.79
2023-04-20T14:52:43.738Z,7.79
2023-04-20T14:55:02.323Z,7.95
2023-04-20T14:57:15.733Z,7.73
2023-04-20T14:59:36.957Z,8.00
2023-04-20T15:02:02.422Z,8.11
2023-04-20T15:04:11.361Z,7.95
2023-04-20T15:06:29.166Z,7.79
2023-04-20T15:08:49.752Z,7.73
2023-04-20T15:11:08.808Z,7.79
2023-04-20T15:13:25.942Z,7.68
2023-04-20T15:15:48.890Z,7.90
2023-04-20T15:18:05.085Z,8.16
2023-04-20T15:20:23.102Z,7.73
2023-04-20T15:22:41.346Z,8.00
2023-04-20T15:24:59.250Z,7.79
2023-04-20T15:27:15.012Z,8.11
2023-04-20T15:29:30.905Z,7.79
2023-04-20T15:31:49.418Z,7.79
2023-04-20T15:34:09.885Z,7.95
2023-04-20T15:36:29.989Z,7.79
2023-04-20T15:38:48.814Z,8.11
2023-04-20T15:41:05.041Z,7.79
2023-04-20T15:43:21.950Z,7.73
2023-04-20T15:45:36.416Z,7.95
2023-04-20T15:47:57.236Z,7.73
2023-04-20T15:50:17.961Z,7.95
2023-04-20T15:52:35.001Z,7.73
2023-04-20T15:54:48.100Z,7.84
2023-04-20T15:57:05.297Z,7.79
2023-04-20T15:59:23.998Z,7.79
2023-04-20T16:01:41.934Z,7.84
2023-04-20T16:04:02.351Z,7.90
2023-04-20T16:06:23.177Z,7.84
2023-04-20T16:08:43.738Z,7.84
2023-04-20T16:11:02.901Z,7.95
2023-04-20T16:13:23.374Z,7.90
2023-04-20T16:15:41.868Z,7.90
2023-04-20T16:17:57.008Z,7.95
2023-04-20T16:20:15.282Z,7.90
2023-04-20T16:22:34.686Z,7.90
2023-04-20T16:24:51.807Z,7.95
2023-04-20T16:27:06.478Z,7.73
2023-04-20T16:29:26.936Z,7.79
2023-04-20T16:31:45.209Z,7.73
2023-04-20T16:34:00.738Z,7.68
2023-04-20T16:36:16.341Z,7.79
2023-04-20T16:38:29.917Z,7.90
2023-04-20T16:40:44.040Z,7.90
2023-04-20T16:42:57.061Z,7.95
2023-04-20T16:45:09.210Z,8.00
2023-04-20T16:47:27.313Z,8.00
2023-04-20T16:49:40.230Z,7.95
2023-04-20T16:51:57.450Z,8.00
2023-04-20T16:54:15.631Z,7.84
2023-04-20T16:56:34.147Z,7.79
2023-04-20T16:58:48.190Z,7.73
2023-04-20T17:01:04.735Z,7.73
2023-04-20T17:03:18.003Z,7.73
2023-04-20T17:05:33.215Z,7.95
2023-04-20T17:07:46.812Z,7.41
2023-04-20T17:10:00.477Z,7.84
2023-04-20T17:12:14.313Z,7.79
2023-04-20T17:14:30.808Z,7.84
2023-04-20T17:16:43.570Z,7.90
2023-04-20T17:19:08.087Z,7.84
2023-04-20T17:21:24.564Z,7.90
2023-04-20T17:23:37.245Z,7.84
2023-04-20T17:25:56.251Z,7.73
2023-04-20T17:28:16.789Z,7.84
2023-04-20T17:30:28.893Z,7.95
2023-04-20T17:32:46.508Z,7.68
2023-04-20T17:35:03.184Z,7.68
2023-04-20T17:37:17.252Z,7.84
2023-04-20T18:36:31.218Z,8.11
2023-04-20T18:50:17.252Z,7.90
2023-04-20T19:10:45.489Z,7.90
2023-04-20T19:43:02.406Z,7.79
2023-04-20T19:52:46.448Z,7.90
2023-04-20T19:54:59.115Z,7.73
2023-04-20T19:57:11.199Z,7.79
2023-04-20T19:59:29.274Z,7.90
2023-04-20T20:01:42.921Z,7.52
2023-04-20T20:03:56.648Z,7.73
2023-04-20T20:06:08.554Z,7.73
2023-04-20T20:08:22.147Z,7.79
2023-04-20T20:10:35.767Z,7.95
2023-04-20T20:12:47.793Z,7.90
2023-04-20T20:15:01.429Z,7.79
2023-04-20T20:17:16.976Z,7.57
2023-04-20T20:19:30.565Z,7.95
2023-04-20T20:21:44.128Z,7.68
2023-04-20T20:23:56.260Z,7.95
2023-04-20T20:26:09.914Z,7.79
2023-04-20T20:28:23.385Z,7.73
2023-04-20T20:30:35.970Z,7.84
2023-04-20T20:32:51.941Z,7.63
2023-04-20T20:35:04.619Z,7.90
2023-04-20T20:37:21.352Z,8.06
2023-04-20T20:39:37.301Z,7.84
2023-04-20T20:41:47.875Z,7.79
2023-04-20T20:44:04.653Z,7.84
2023-04-20T20:46:17.112Z,7.79
2023-04-20T20:48:30.169Z,7.47
2023-04-20T20:50:42.936Z,7.63
2023-04-20T20:52:56.529Z,7.84
2023-04-20T20:55:11.992Z,7.73
2023-04-20T20:57:24.211Z,7.79
2023-04-20T20:59:38.700Z,7.68
2023-04-20T21:01:53.384Z,7.79
2023-04-20T21:04:07.159Z,7.47
2023-04-20T21:06:22.533Z,7.68
2023-04-20T21:08:38.137Z,7.90
2023-04-20T21:10:53.776Z,7.79
2023-04-20T21:13:11.847Z,7.84
2023-04-20T21:15:23.944Z,7.68
2023-04-20T21:17:38.426Z,7.57
2023-04-20T21:19:51.150Z,8.00
2023-04-20T21:22:04.220Z,7.90
2023-04-20T21:24:19.780Z,7.73
2023-04-20T21:26:35.985Z,7.63
2023-04-20T21:28:50.950Z,7.63
2023-04-20T21:31:04.024Z,8.00
2023-04-20T21:33:18.666Z,7.84
2023-04-20T21:35:34.189Z,7.73
2023-04-20T21:37:48.643Z,7.95
2023-04-20T21:40:02.527Z,7.68
2023-04-20T21:42:16.151Z,7.73
2023-04-20T21:44:28.873Z,7.52
2023-04-20T21:46:43.867Z,7.79
2023-04-20T21:48:54.521Z,7.57
2023-04-20T21:51:06.661Z,7.73
2023-04-20T21:53:20.202Z,7.52
2023-04-20T21:55:34.852Z,7.84
2023-04-20T21:57:48.828Z,7.95
2023-04-20T22:00:01.484Z,7.73
2023-04-20T22:02:15.073Z,7.95
2023-04-20T22:04:30.734Z,7.90
2023-04-20T22:06:44.149Z,7.79
2023-04-20T22:08:59.163Z,8.06
2023-04-20T22:11:13.873Z,7.57
2023-04-20T22:13:25.996Z,7.90
2023-04-20T22:15:38.149Z,7.79
2023-04-20T22:17:54.010Z,8.00
2023-04-20T22:20:05.817Z,8.00
2023-04-20T22:22:17.445Z,7.79
2023-04-20T22:24:31.535Z,7.68
2023-04-20T22:26:43.126Z,7.84
2023-04-20T22:28:57.045Z,8.06
2023-04-20T22:31:13.373Z,7.47
2023-04-20T22:33:24.439Z,7.79
2023-04-20T22:35:40.446Z,7.95
2023-04-20T22:37:52.478Z,7.79
2023-04-20T22:40:04.746Z,7.68
2023-04-20T22:42:17.649Z,7.57
2023-04-20T22:44:29.881Z,7.79
2023-04-20T22:46:44.355Z,7.95
2023-04-20T22:48:58.927Z,7.63
2023-04-20T22:51:12.668Z,7.79
2023-04-20T22:53:26.586Z,8.00
2023-04-20T22:55:39.311Z,7.68
2023-04-20T22:57:51.394Z,7.90
2023-04-20T23:00:03.485Z,7.84
2023-04-20T23:02:17.663Z,7.84
2023-04-20T23:04:32.637Z,7.84
2023-04-20T23:06:47.157Z,7.95
2023-04-20T23:09:05.189Z,7.73
2023-04-20T23:10:05.178Z,7.73
2023-04-20T23:12:17.859Z,7.95
2023-04-20T23:14:31.430Z,8.00
2023-04-20T23:16:48.163Z,7.73
2023-04-20T23:19:01.688Z,7.79
2023-04-20T23:21:18.114Z,7.63
2023-04-20T23:23:30.314Z,7.79
2023-04-20T23:25:44.794Z,7.95
2023-04-20T23:27:59.465Z,7.63
2023-04-20T23:30:11.584Z,7.95
2023-04-20T23:32:25.182Z,7.68
2023-04-20T23:34:42.124Z,7.68
2023-04-20T23:36:54.315Z,7.73
2023-04-20T23:39:07.265Z,7.79
2023-04-20T23:41:21.886Z,7.73
2023-04-20T23:43:37.448Z,7.95
2023-04-20T23:45:49.665Z,7.84
2023-04-20T23:48:03.299Z,7.90
2023-04-20T23:50:16.811Z,7.90
2023-04-20T23:52:32.907Z,7.73
2023-04-20T23:54:49.875Z,7.73
2023-04-20T23:57:03.504Z,7.84
2023-04-20T23:59:14.668Z,7.73
